createdAt,value
2023-01-25T00:00:06.500Z,102281.97
2023-01-25T00:01:14.456Z,102259.91
2023-01-25T00:01:48.523Z,102293.38
2023-01-25T00:02:35.486Z,102271.53
2023-01-25T00:03:16.520Z,102287.41
2023-01-25T00:04:11.408Z,102291.97
2023-01-25T00:05:06.790Z,102286.72
2023-01-25T00:06:01.449Z,102284.00
2023-01-25T00:06:55.399Z,102286.53
2023-01-25T00:07:49.431Z,102273.22
2023-01-25T00:08:36.496Z,102286.41
2023-01-25T00:09:11.556Z,102268.84
2023-01-25T00:09:58.419Z,102282.91
2023-01-25T00:10:32.504Z,102290.03
2023-01-25T00:11:19.473Z,102283.31
2023-01-25T00:11:56.294Z,102287.81
2023-01-25T00:12:43.404Z,102287.59
2023-01-25T00:13:17.565Z,102276.00
2023-01-25T00:14:00.444Z,102287.41
2023-01-25T00:14:40.494Z,102287.53
2023-01-25T00:15:21.397Z,102273.31
2023-01-25T00:16:10.528Z,102279.50
2023-01-25T00:16:51.473Z,102283.00
2023-01-25T00:17:33.469Z,102272.38
2023-01-25T00:18:13.410Z,102281.16
2023-01-25T00:18:54.511Z,102261.72
2023-01-25T00:19:34.436Z,102274.88
2023-01-25T00:20:15.457Z,102280.28
2023-01-25T00:20:55.421Z,102280.91
2023-01-25T00:21:35.478Z,102264.97
2023-01-25T00:22:16.390Z,102270.13
2023-01-25T00:22:56.462Z,102265.69
2023-01-25T00:23:41.378Z,102274.59
2023-01-25T00:24:23.246Z,102254.56
2023-01-25T00:25:03.435Z,102269.59
2023-01-25T00:25:43.446Z,102264.03
2023-01-25T00:26:24.439Z,102266.72
2023-01-25T00:27:04.482Z,102264.81
2023-01-25T00:27:44.374Z,102250.53
2023-01-25T00:28:24.492Z,102254.88
2023-01-25T00:29:05.403Z,102259.09
2023-01-25T00:29:45.450Z,102245.06
2023-01-25T00:30:26.445Z,102256.47
2023-01-25T00:31:08.405Z,102260.84
2023-01-25T00:32:07.534Z,102258.16
2023-01-25T00:33:13.456Z,102253.78
2023-01-25T00:34:08.409Z,102253.78
2023-01-25T00:34:54.434Z,102254.69
2023-01-25T00:35:39.404Z,102248.38
2023-01-25T00:36:44.508Z,102250.94
2023-01-25T00:37:24.596Z,102249.19
2023-01-25T00:38:09.459Z,102232.69
2023-01-25T00:38:50.398Z,102244.19
2023-01-25T00:39:32.468Z,102227.56
2023-01-25T00:40:15.391Z,102248.78
2023-01-25T00:40:56.402Z,102238.88
2023-01-25T00:41:30.430Z,102233.50
2023-01-25T00:42:18.394Z,102221.97
2023-01-25T00:42:52.452Z,102236.19
2023-01-25T00:43:39.367Z,102235.31
2023-01-25T00:44:13.477Z,102209.69
2023-01-25T00:45:00.458Z,102209.69
2023-01-25T00:45:34.501Z,102198.56
2023-01-25T00:46:23.425Z,102214.72
2023-01-25T00:46:57.442Z,102203.88
2023-01-25T00:47:44.381Z,102217.13
2023-01-25T00:48:18.444Z,102211.03
2023-01-25T00:49:05.368Z,102219.59
2023-01-25T00:49:39.485Z,102217.84
2023-01-25T00:50:26.348Z,102222.19
2023-01-25T00:51:00.443Z,102211.69
2023-01-25T00:51:47.412Z,102210.59
2023-01-25T00:52:23.018Z,102223.00
2023-01-25T00:53:10.357Z,102214.09
2023-01-25T00:53:44.434Z,102203.44
2023-01-25T00:54:32.351Z,102205.09
2023-01-25T00:55:06.672Z,102207.69
2023-01-25T00:56:02.351Z,102192.63
2023-01-25T00:56:36.409Z,102196.03
2023-01-25T00:57:17.403Z,102211.03
2023-01-25T00:57:57.434Z,102210.91
2023-01-25T00:58:37.397Z,102209.88
2023-01-25T00:59:18.443Z,102215.38
2023-01-25T00:59:58.338Z,102214.31
2023-01-25T01:00:38.487Z,102207.28
2023-01-25T01:01:19.443Z,102217.72
2023-01-25T01:02:00.475Z,102196.69
2023-01-25T01:02:41.360Z,102217.06
2023-01-25T01:03:23.397Z,102223.31
2023-01-25T01:04:05.622Z,102207.44
2023-01-25T01:04:46.631Z,102212.88
2023-01-25T01:05:26.374Z,102214.66
2023-01-25T01:06:13.423Z,102218.16
2023-01-25T01:06:53.338Z,102234.16
2023-01-25T01:07:34.427Z,102228.66
2023-01-25T01:08:14.352Z,102211.91
2023-01-25T01:08:54.398Z,102227.72
2023-01-25T01:09:34.302Z,102214.66
2023-01-25T01:10:15.413Z,102225.16
2023-01-25T01:10:56.324Z,102234.31
2023-01-25T01:11:37.584Z,102229.88
2023-01-25T01:12:17.342Z,102234.44
2023-01-25T01:12:58.430Z,102242.50
2023-01-25T01:13:39.370Z,102234.44
2023-01-25T01:14:21.442Z,102226.63
2023-01-25T01:15:03.360Z,102219.50
2023-01-25T01:15:44.381Z,102225.78
2023-01-25T01:16:24.383Z,102234.53
2023-01-25T01:17:04.452Z,102229.19
2023-01-25T01:17:44.366Z,102231.75
2023-01-25T01:18:24.454Z,102236.19
2023-01-25T01:19:04.338Z,102210.63
2023-01-25T01:19:44.381Z,102232.72
2023-01-25T01:20:24.336Z,102233.56
2023-01-25T01:21:04.430Z,102225.47
2023-01-25T01:21:44.345Z,102211.25
2023-01-25T01:22:24.651Z,102215.88
2023-01-25T01:23:04.339Z,102227.22
2023-01-25T01:23:44.439Z,102228.09
2023-01-25T01:24:25.481Z,102226.41
2023-01-25T01:25:05.402Z,102223.06
2023-01-25T01:25:45.343Z,102198.34
2023-01-25T01:26:25.425Z,102231.75
2023-01-25T01:27:05.348Z,102227.28
2023-01-25T01:27:45.382Z,102221.31
2023-01-25T01:28:25.309Z,102224.91
2023-01-25T01:29:05.401Z,102205.38
2023-01-25T01:29:45.357Z,102225.69
2023-01-25T01:30:39.341Z,102231.81
2023-01-25T01:31:38.446Z,102215.03
2023-01-25T01:32:32.464Z,102230.03
2023-01-25T01:33:26.341Z,102193.94
2023-01-25T01:34:20.354Z,102231.56
2023-01-25T01:35:07.548Z,102213.72
2023-01-25T01:35:41.525Z,102217.94
2023-01-25T01:36:31.325Z,102225.97
2023-01-25T01:37:05.377Z,102221.84
2023-01-25T01:37:52.312Z,102216.41
2023-01-25T01:38:26.398Z,102206.91
2023-01-25T01:39:13.315Z,102227.22
2023-01-25T01:39:47.498Z,102220.41
2023-01-25T01:40:28.363Z,102222.28
2023-01-25T01:41:08.355Z,102218.78
2023-01-25T01:41:49.327Z,102222.22
2023-01-25T01:42:29.372Z,102202.03
2023-01-25T01:43:13.343Z,102225.69
2023-01-25T01:43:53.380Z,102224.88
2023-01-25T01:45:09.626Z,102211.69
2023-01-25T01:45:51.363Z,102230.97
2023-01-25T01:46:40.365Z,102221.09
2023-01-25T01:47:48.286Z,102212.22
2023-01-25T01:49:05.347Z,102213.16
2023-01-25T01:50:00.303Z,102208.78
2023-01-25T01:50:34.363Z,102209.69
2023-01-25T01:51:56.309Z,102229.22
2023-01-25T01:52:40.398Z,102212.34
2023-01-25T01:53:21.311Z,102216.91
2023-01-25T01:54:51.386Z,102219.50
2023-01-25T01:55:32.283Z,102201.81
2023-01-25T01:56:18.386Z,102226.41
2023-01-25T01:57:17.328Z,102217.56
2023-01-25T01:58:03.711Z,102213.09
2023-01-25T01:58:43.300Z,102201.75
2023-01-25T01:59:24.363Z,102221.84
2023-01-25T02:00:20.317Z,102210.38
2023-01-25T02:01:00.367Z,102201.63
2023-01-25T02:01:41.328Z,102194.50
2023-01-25T02:02:29.444Z,102207.63
2023-01-25T02:03:25.301Z,102203.06
2023-01-25T02:04:20.288Z,102215.31
2023-01-25T02:05:19.295Z,102217.16
2023-01-25T02:06:29.298Z,102218.06
2023-01-25T02:07:41.355Z,102218.16
2023-01-25T02:08:35.271Z,102219.19
2023-01-25T02:09:35.313Z,102185.06
2023-01-25T02:10:29.322Z,102178.06
2023-01-25T02:11:25.292Z,102207.94
2023-01-25T02:12:20.287Z,102223.88
2023-01-25T02:13:02.298Z,102220.22
2023-01-25T02:13:43.419Z,102211.34
2023-01-25T02:14:24.263Z,102214.03
2023-01-25T02:15:04.406Z,102220.22
2023-01-25T02:15:54.355Z,102220.31
2023-01-25T02:16:35.359Z,102220.53
2023-01-25T02:17:17.306Z,102199.56
2023-01-25T02:17:58.387Z,102218.19
2023-01-25T02:18:38.281Z,102224.56
2023-01-25T02:19:44.351Z,102207.94
2023-01-25T02:20:50.326Z,102227.44
2023-01-25T02:21:52.322Z,102211.50
2023-01-25T02:22:58.356Z,102213.13
2023-01-25T02:24:12.380Z,102213.03
2023-01-25T02:25:34.283Z,102210.38
2023-01-25T02:26:29.303Z,102215.78
2023-01-25T02:27:23.291Z,102207.75
2023-01-25T02:28:40.330Z,102208.56
2023-01-25T02:29:30.325Z,102210.22
2023-01-25T02:30:04.337Z,102191.47
2023-01-25T02:30:52.485Z,102182.78
2023-01-25T02:31:26.397Z,102213.47
2023-01-25T02:32:14.452Z,102204.59
2023-01-25T02:32:48.298Z,102210.81
2023-01-25T02:33:35.234Z,102208.16
2023-01-25T02:34:09.301Z,102202.03
2023-01-25T02:34:50.234Z,102206.34
2023-01-25T02:35:53.765Z,102204.59
2023-01-25T02:36:41.431Z,102207.28
2023-01-25T02:37:22.490Z,102177.34
2023-01-25T02:38:02.257Z,102202.94
2023-01-25T02:38:58.297Z,102193.94
2023-01-25T02:39:39.270Z,102188.66
2023-01-25T02:40:20.368Z,102196.47
2023-01-25T02:41:14.289Z,102205.53
2023-01-25T02:42:01.249Z,102181.56
2023-01-25T02:42:37.320Z,102187.84
2023-01-25T02:43:25.245Z,102200.94
2023-01-25T02:43:59.611Z,102200.97
2023-01-25T02:44:46.249Z,102192.91
2023-01-25T02:45:30.324Z,102190.22
2023-01-25T02:46:36.388Z,102187.50
2023-01-25T02:47:30.261Z,102190.97
2023-01-25T02:48:24.249Z,102190.75
2023-01-25T02:49:20.260Z,102187.13
2023-01-25T02:50:15.820Z,102186.41
2023-01-25T02:50:56.269Z,102190.00
2023-01-25T02:51:39.340Z,102193.72
2023-01-25T02:52:20.263Z,102174.22
2023-01-25T02:53:00.304Z,102187.69
2023-01-25T02:53:41.237Z,102183.22
2023-01-25T02:54:24.273Z,102175.44
2023-01-25T02:55:04.260Z,102170.03
2023-01-25T02:55:44.414Z,102190.31
2023-01-25T02:56:25.275Z,102188.56
2023-01-25T02:57:06.327Z,102185.06
2023-01-25T02:57:46.248Z,102193.94
2023-01-25T02:58:26.275Z,102176.31
2023-01-25T02:59:12.224Z,102185.16
2023-01-25T02:59:52.271Z,102192.38
2023-01-25T03:00:32.266Z,102181.50
2023-01-25T03:01:12.550Z,102178.81
2023-01-25T03:01:53.368Z,102183.28
2023-01-25T03:02:33.458Z,102145.75
2023-01-25T03:03:13.303Z,102180.06
2023-01-25T03:03:53.407Z,102184.56
2023-01-25T03:04:33.218Z,102165.88
2023-01-25T03:05:13.279Z,102171.16
2023-01-25T03:05:53.234Z,102178.78
2023-01-25T03:06:33.257Z,102169.28
2023-01-25T03:07:13.262Z,102184.16
2023-01-25T03:07:53.271Z,102173.44
2023-01-25T03:08:34.235Z,102169.97
2023-01-25T03:09:17.278Z,102177.94
2023-01-25T03:09:57.224Z,102170.84
2023-01-25T03:10:37.288Z,102178.72
2023-01-25T03:11:18.235Z,102167.00
2023-01-25T03:11:58.261Z,102172.28
2023-01-25T03:12:38.236Z,102159.03
2023-01-25T03:13:18.272Z,102159.91
2023-01-25T03:13:59.222Z,102154.66
2023-01-25T03:14:39.333Z,102163.22
2023-01-25T03:15:19.229Z,102152.50
2023-01-25T03:16:00.350Z,102163.22
2023-01-25T03:16:40.190Z,102152.50
2023-01-25T03:17:20.270Z,102148.09
2023-01-25T03:18:04.480Z,102157.56
2023-01-25T03:18:46.291Z,102156.63
2023-01-25T03:19:26.198Z,102157.50
2023-01-25T03:20:06.313Z,102143.38
2023-01-25T03:20:47.226Z,102150.63
2023-01-25T03:21:41.252Z,102163.31
2023-01-25T03:22:35.250Z,102151.09
2023-01-25T03:23:22.246Z,102151.13
2023-01-25T03:24:06.304Z,102163.63
2023-01-25T03:24:53.212Z,102165.47
2023-01-25T03:25:27.254Z,102154.88
2023-01-25T03:26:27.210Z,102145.25
2023-01-25T03:27:18.391Z,102150.41
2023-01-25T03:28:05.207Z,102141.72
2023-01-25T03:28:46.244Z,102139.00
2023-01-25T03:29:40.214Z,102138.09
2023-01-25T03:30:34.196Z,102124.75
2023-01-25T03:31:30.331Z,102107.34
2023-01-25T03:32:25.273Z,102142.38
2023-01-25T03:33:19.229Z,102147.56
2023-01-25T03:34:06.248Z,102133.44
2023-01-25T03:34:40.306Z,102134.25
2023-01-25T03:35:27.255Z,102141.09
2023-01-25T03:36:02.340Z,102154.38
2023-01-25T03:36:49.200Z,102137.38
2023-01-25T03:37:23.300Z,102132.06
2023-01-25T03:38:10.198Z,102146.19
2023-01-25T03:38:44.264Z,102136.44
2023-01-25T03:39:31.208Z,102139.69
2023-01-25T03:40:05.670Z,102138.81
2023-01-25T03:40:52.251Z,102133.66
2023-01-25T03:41:26.265Z,102132.00
2023-01-25T03:42:13.203Z,102132.28
2023-01-25T03:42:47.255Z,102134.75
2023-01-25T03:43:35.181Z,102138.44
2023-01-25T03:44:11.443Z,102128.81
2023-01-25T03:44:51.238Z,102111.16
2023-01-25T03:45:31.288Z,102133.44
2023-01-25T03:46:12.180Z,102107.59
2023-01-25T03:46:52.327Z,102124.34
2023-01-25T03:47:32.214Z,102114.69
2023-01-25T03:48:13.278Z,102126.94
2023-01-25T03:48:53.171Z,102119.91
2023-01-25T03:49:33.266Z,102123.53
2023-01-25T03:50:14.187Z,102129.91
2023-01-25T03:51:03.407Z,102131.00
2023-01-25T03:51:43.211Z,102109.09
2023-01-25T03:52:26.501Z,102118.22
2023-01-25T03:53:35.219Z,102124.44
2023-01-25T03:54:15.229Z,102117.19
2023-01-25T03:54:55.191Z,102110.13
2023-01-25T03:55:35.201Z,102120.84
2023-01-25T03:56:19.834Z,102112.78
2023-01-25T03:57:07.189Z,102108.28
2023-01-25T03:57:41.255Z,102116.19
2023-01-25T03:58:28.171Z,102096.66
2023-01-25T03:59:02.234Z,102103.66
2023-01-25T03:59:49.206Z,102111.38
2023-01-25T04:00:24.256Z,102105.91
2023-01-25T04:01:07.319Z,102102.44
2023-01-25T04:01:47.276Z,102104.81
2023-01-25T04:02:27.381Z,102109.09
2023-01-25T04:03:07.239Z,102109.03
2023-01-25T04:03:47.158Z,102102.88
2023-01-25T04:04:27.241Z,102110.78
2023-01-25T04:05:08.410Z,102095.69
2023-01-25T04:05:49.240Z,102092.38
2023-01-25T04:06:29.207Z,102090.59
2023-01-25T04:07:09.256Z,102096.56
2023-01-25T04:07:49.157Z,102097.66
2023-01-25T04:08:31.233Z,102097.59
2023-01-25T04:09:12.193Z,102101.81
2023-01-25T04:09:52.336Z,102088.75
2023-01-25T04:10:33.131Z,102100.84
2023-01-25T04:11:16.218Z,102107.22
2023-01-25T04:11:57.194Z,102089.56
2023-01-25T04:12:37.328Z,102102.69
2023-01-25T04:13:18.149Z,102105.31
2023-01-25T04:13:58.211Z,102104.53
2023-01-25T04:14:44.344Z,102091.94
2023-01-25T04:15:25.250Z,102091.06
2023-01-25T04:16:05.185Z,102112.88
2023-01-25T04:16:45.304Z,102105.75
2023-01-25T04:17:26.165Z,102100.41
2023-01-25T04:18:20.179Z,102110.19
2023-01-25T04:19:14.188Z,102111.13
2023-01-25T04:20:08.162Z,102110.25
2023-01-25T04:21:09.169Z,102095.41
2023-01-25T04:22:03.174Z,102095.56
2023-01-25T04:22:50.148Z,102111.00
2023-01-25T04:23:24.178Z,102113.75
2023-01-25T04:24:12.226Z,102086.66
2023-01-25T04:24:46.219Z,102109.34
2023-01-25T04:25:33.183Z,102099.56
2023-01-25T04:26:12.364Z,102112.94
2023-01-25T04:26:59.168Z,102108.38
2023-01-25T04:27:33.301Z,102101.50
2023-01-25T04:28:13.194Z,102095.34
2023-01-25T04:28:53.261Z,102103.00
2023-01-25T04:29:41.221Z,102098.69
2023-01-25T04:30:22.194Z,102099.50
2023-01-25T04:31:03.129Z,102110.13
2023-01-25T04:31:43.358Z,102104.81
2023-01-25T04:32:23.312Z,102079.84
2023-01-25T04:33:03.424Z,102098.09
2023-01-25T04:33:43.151Z,102089.13
2023-01-25T04:34:24.145Z,102103.97
2023-01-25T04:35:05.151Z,102107.72
2023-01-25T04:35:45.246Z,102097.97
2023-01-25T04:36:25.159Z,102103.25
2023-01-25T04:37:05.188Z,102102.44
2023-01-25T04:37:45.123Z,102097.97
2023-01-25T04:38:26.189Z,102102.44
2023-01-25T04:39:06.164Z,102101.50
2023-01-25T04:39:46.235Z,102084.69
2023-01-25T04:40:26.179Z,102095.13
2023-01-25T04:41:06.184Z,102088.19
2023-01-25T04:41:46.145Z,102062.75
2023-01-25T04:42:27.205Z,102090.00
2023-01-25T04:43:07.160Z,102083.84
2023-01-25T04:43:47.385Z,102095.22
2023-01-25T04:44:27.164Z,102095.44
2023-01-25T04:45:07.746Z,102098.91
2023-01-25T04:45:49.172Z,102092.72
2023-01-25T04:46:30.187Z,102089.13
2023-01-25T04:47:10.132Z,102071.38
2023-01-25T04:47:50.250Z,102073.13
2023-01-25T04:48:30.105Z,102085.41
2023-01-25T04:49:10.195Z,102072.91
2023-01-25T04:49:50.193Z,102085.28
2023-01-25T04:50:32.279Z,102084.41
2023-01-25T04:51:12.110Z,102073.69
2023-01-25T04:51:52.214Z,102077.97
2023-01-25T04:52:33.147Z,102074.34
2023-01-25T04:53:14.180Z,102074.25
2023-01-25T04:53:54.132Z,102072.38
2023-01-25T04:54:34.212Z,102065.16
2023-01-25T04:55:15.125Z,102043.41
2023-01-25T04:55:55.157Z,102070.50
2023-01-25T04:56:35.111Z,102055.72
2023-01-25T04:57:15.178Z,102071.44
2023-01-25T04:57:58.102Z,102066.25
2023-01-25T04:58:38.188Z,102068.91
2023-01-25T04:59:18.113Z,102065.28
2023-01-25T04:59:58.164Z,102055.66
2023-01-25T05:00:39.173Z,102053.78
2023-01-25T05:01:19.228Z,102049.19
2023-01-25T05:01:59.139Z,102066.94
2023-01-25T05:02:40.213Z,102066.72
2023-01-25T05:03:21.121Z,102060.50
2023-01-25T05:04:01.176Z,102050.94
2023-01-25T05:04:41.142Z,102059.56
2023-01-25T05:05:21.163Z,102070.09
2023-01-25T05:06:02.162Z,102062.97
2023-01-25T05:06:42.179Z,102061.34
2023-01-25T05:07:23.123Z,102068.09
2023-01-25T05:08:03.147Z,102072.34
2023-01-25T05:08:43.097Z,102070.59
2023-01-25T05:09:23.221Z,102053.00
2023-01-25T05:10:03.090Z,102067.91
2023-01-25T05:10:43.186Z,102063.91
2023-01-25T05:11:24.134Z,102063.09
2023-01-25T05:12:05.727Z,102064.94
2023-01-25T05:12:46.110Z,102050.88
2023-01-25T05:13:26.151Z,102058.97
2023-01-25T05:14:06.104Z,102040.44
2023-01-25T05:14:47.170Z,102059.13
2023-01-25T05:15:28.111Z,102070.47
2023-01-25T05:16:09.127Z,102073.09
2023-01-25T05:16:50.222Z,102066.94
2023-01-25T05:17:44.145Z,102081.06
2023-01-25T05:18:48.029Z,102078.31
2023-01-25T05:19:43.127Z,102078.22
2023-01-25T05:20:37.169Z,102083.59
2023-01-25T05:21:49.112Z,102071.19
2023-01-25T05:22:30.114Z,102068.44
2023-01-25T05:23:10.143Z,102073.69
2023-01-25T05:23:51.091Z,102080.84
2023-01-25T05:24:33.238Z,102065.06
2023-01-25T05:25:34.124Z,102078.06
2023-01-25T05:26:34.071Z,102065.63
2023-01-25T05:27:16.124Z,102069.81
2023-01-25T05:27:57.122Z,102055.63
2023-01-25T05:28:38.160Z,102052.91
2023-01-25T05:29:18.159Z,102064.50
2023-01-25T05:29:58.076Z,102064.59
2023-01-25T05:30:38.181Z,102060.19
2023-01-25T05:31:18.241Z,102069.03
2023-01-25T05:31:58.331Z,102073.47
2023-01-25T05:32:39.325Z,102070.78
2023-01-25T05:33:19.229Z,102064.59
2023-01-25T05:33:59.063Z,102064.59
2023-01-25T05:34:54.072Z,102066.56
2023-01-25T05:35:48.072Z,102069.03
2023-01-25T05:36:42.062Z,102066.25
2023-01-25T05:37:36.097Z,102050.09
2023-01-25T05:38:16.098Z,102059.03
2023-01-25T05:38:56.153Z,102047.47
2023-01-25T05:39:37.088Z,102059.88
2023-01-25T05:40:18.167Z,102051.19
2023-01-25T05:40:58.084Z,102065.31
2023-01-25T05:41:38.114Z,102056.47
2023-01-25T05:42:24.082Z,102043.38
2023-01-25T05:43:05.108Z,102059.16
2023-01-25T05:43:45.114Z,102042.59
2023-01-25T05:44:25.157Z,102055.63
2023-01-25T05:45:05.103Z,102052.94
2023-01-25T05:45:46.153Z,102032.88
2023-01-25T05:46:26.119Z,102056.56
2023-01-25T05:47:06.238Z,102046.88
2023-01-25T05:47:46.050Z,102058.22
2023-01-25T05:48:26.144Z,102058.22
2023-01-25T05:49:06.084Z,102051.19
2023-01-25T05:49:47.107Z,102051.91
2023-01-25T05:50:28.088Z,102054.69
2023-01-25T05:51:08.140Z,102048.84
2023-01-25T05:51:49.088Z,102028.56
2023-01-25T05:52:29.157Z,102050.22
2023-01-25T05:53:09.057Z,102051.91
2023-01-25T05:53:49.098Z,102041.28
2023-01-25T05:54:29.099Z,102060.75
2023-01-25T05:55:09.327Z,102035.91
2023-01-25T05:55:49.293Z,102041.25
2023-01-25T05:56:30.322Z,102046.66
2023-01-25T05:57:11.150Z,102036.75
2023-01-25T05:57:52.175Z,102032.34
2023-01-25T05:58:32.069Z,102046.44
2023-01-25T05:59:12.179Z,102046.31
2023-01-25T05:59:52.112Z,102033.22
2023-01-25T06:00:32.121Z,102037.78
2023-01-25T06:01:14.048Z,102018.44
2023-01-25T06:01:54.110Z,102026.97
2023-01-25T06:02:34.047Z,102034.00
2023-01-25T06:03:14.283Z,102001.66
2023-01-25T06:03:55.039Z,102033.94
2023-01-25T06:04:35.132Z,102042.59
2023-01-25T06:05:16.055Z,102009.25
2023-01-25T06:06:03.194Z,102038.97
2023-01-25T06:06:43.012Z,102039.84
2023-01-25T06:07:24.704Z,102032.19
2023-01-25T06:08:06.037Z,102040.09
2023-01-25T06:08:47.078Z,102038.41
2023-01-25T06:09:27.027Z,102036.63
2023-01-25T06:10:07.638Z,102039.22
2023-01-25T06:10:48.051Z,102036.69
2023-01-25T06:11:30.090Z,102041.28
2023-01-25T06:12:12.048Z,102051.91
2023-01-25T06:12:52.176Z,102037.56
2023-01-25T06:13:32.042Z,102024.47
2023-01-25T06:14:13.196Z,102028.81
2023-01-25T06:14:54.028Z,102039.59
2023-01-25T06:15:34.082Z,102041.50
2023-01-25T06:16:15.075Z,102037.97
2023-01-25T06:16:55.116Z,102025.78
2023-01-25T06:17:35.014Z,102043.47
2023-01-25T06:18:15.071Z,102039.91
2023-01-25T06:18:55.032Z,102038.25
2023-01-25T06:19:35.107Z,102036.50
2023-01-25T06:20:16.065Z,102028.63
2023-01-25T06:20:56.077Z,102034.84
2023-01-25T06:21:36.485Z,102047.22
2023-01-25T06:22:17.099Z,102021.63
2023-01-25T06:23:11.026Z,102033.91
2023-01-25T06:24:05.158Z,102028.78
2023-01-25T06:24:59.034Z,102019.81
2023-01-25T06:25:53.008Z,102039.06
2023-01-25T06:26:48.053Z,102021.28
2023-01-25T06:27:42.005Z,102044.09
2023-01-25T06:28:36.015Z,102040.78
2023-01-25T06:29:30.039Z,102037.09
2023-01-25T06:30:25.005Z,102042.44
2023-01-25T06:31:25.326Z,102035.13
2023-01-25T06:32:12.065Z,102023.59
2023-01-25T06:32:46.089Z,102040.53
2023-01-25T06:33:33.053Z,102039.69
2023-01-25T06:34:08.486Z,102048.66
2023-01-25T06:34:54.969Z,102043.28
2023-01-25T06:35:29.145Z,102025.78
2023-01-25T06:36:22.014Z,102025.78
2023-01-25T06:36:56.078Z,102030.22
2023-01-25T06:37:36.220Z,102047.06
2023-01-25T06:38:16.036Z,102041.88
2023-01-25T06:38:59.012Z,102030.53
2023-01-25T06:39:39.084Z,102031.69
2023-01-25T06:40:19.006Z,102032.69
2023-01-25T06:40:59.202Z,102026.78
2023-01-25T06:41:38.996Z,102041.81
2023-01-25T06:42:19.110Z,102034.00
2023-01-25T06:43:00.015Z,102033.13
2023-01-25T06:43:41.114Z,102034.31
2023-01-25T06:44:20.993Z,102044.94
2023-01-25T06:45:01.071Z,102044.09
2023-01-25T06:45:40.993Z,102043.16
2023-01-25T06:46:21.053Z,102037.06
2023-01-25T06:47:01.975Z,102037.91
2023-01-25T06:47:42.110Z,102020.41
2023-01-25T06:48:21.977Z,102032.88
2023-01-25T06:49:02.087Z,102045.31
2023-01-25T06:49:41.982Z,102034.72
2023-01-25T06:50:22.266Z,102035.81
2023-01-25T06:51:08.986Z,102037.41
2023-01-25T06:51:49.048Z,102036.59
2023-01-25T06:52:29.014Z,102036.47
2023-01-25T06:53:09.082Z,102017.00
2023-01-25T06:53:52.030Z,102029.94
2023-01-25T06:54:32.026Z,102029.94
2023-01-25T06:55:14.982Z,102019.22
2023-01-25T06:55:55.100Z,102031.47
2023-01-25T06:56:34.973Z,102029.66
2023-01-25T06:57:15.098Z,102017.25
2023-01-25T06:57:56.021Z,102017.16
2023-01-25T06:58:37.327Z,102034.66
2023-01-25T06:59:18.016Z,102037.28
2023-01-25T06:59:58.087Z,102008.25
2023-01-25T07:00:37.977Z,102021.31
2023-01-25T07:01:30.477Z,102018.56
2023-01-25T07:02:10.983Z,102037.91
2023-01-25T07:02:51.157Z,102037.84
2023-01-25T07:03:31.974Z,102037.81
2023-01-25T07:04:12.366Z,102003.44
2023-01-25T07:04:52.017Z,102000.69
2023-01-25T07:05:32.007Z,102029.63
2023-01-25T07:06:14.974Z,102025.16
2023-01-25T07:06:55.025Z,102025.16
2023-01-25T07:07:35.967Z,102025.88
2023-01-25T07:08:16.838Z,102024.94
2023-01-25T07:08:58.981Z,102029.72
2023-01-25T07:09:39.057Z,102038.47
2023-01-25T07:10:19.984Z,102024.47
2023-01-25T07:11:09.533Z,102021.69
2023-01-25T07:11:50.942Z,102020.75
2023-01-25T07:12:32.334Z,102026.00
2023-01-25T07:13:11.939Z,102028.69
2023-01-25T07:13:53.016Z,102032.25
2023-01-25T07:14:32.941Z,102031.25
2023-01-25T07:15:27.031Z,102029.50
2023-01-25T07:16:25.945Z,101989.81
2023-01-25T07:17:20.062Z,102021.94
2023-01-25T07:18:16.580Z,102018.25
2023-01-25T07:19:10.956Z,102006.78
2023-01-25T07:20:04.964Z,102003.97
2023-01-25T07:20:52.023Z,102008.44
2023-01-25T07:21:30.090Z,102011.00
2023-01-25T07:22:16.984Z,102013.38
2023-01-25T07:22:51.019Z,101993.38
2023-01-25T07:23:39.975Z,102013.91
2023-01-25T07:24:14.068Z,101992.63
2023-01-25T07:25:03.950Z,102012.84
2023-01-25T07:25:38.003Z,101998.09
2023-01-25T07:26:25.009Z,101989.88
2023-01-25T07:27:04.997Z,102005.75
2023-01-25T07:27:44.934Z,101997.81
2023-01-25T07:28:25.427Z,102002.13
2023-01-25T07:29:05.972Z,102010.00
2023-01-25T07:29:45.995Z,102002.84
2023-01-25T07:30:28.041Z,101999.56
2023-01-25T07:31:15.270Z,102012.84
2023-01-25T07:31:56.031Z,102006.66
2023-01-25T07:32:36.027Z,102006.84
2023-01-25T07:33:18.920Z,102003.34
2023-01-25T07:34:01.970Z,102013.31
2023-01-25T07:34:42.975Z,102016.81
2023-01-25T07:35:22.988Z,101995.66
2023-01-25T07:36:10.962Z,102021.13
2023-01-25T07:36:51.013Z,102015.16
2023-01-25T07:37:33.964Z,102008.06
2023-01-25T07:38:14.864Z,102010.88
2023-01-25T07:38:55.940Z,102006.19
2023-01-25T07:39:36.426Z,101989.44
2023-01-25T07:40:16.931Z,101980.78
2023-01-25T07:40:59.975Z,102003.41
2023-01-25T07:41:39.925Z,102011.00
2023-01-25T07:42:19.970Z,101992.44
2023-01-25T07:43:00.962Z,101990.72
2023-01-25T07:43:41.199Z,101998.69
2023-01-25T07:44:21.937Z,101999.31
2023-01-25T07:45:02.333Z,101998.28
2023-01-25T07:45:41.913Z,101992.34
2023-01-25T07:46:21.973Z,101997.66
2023-01-25T07:47:02.934Z,102005.63
2023-01-25T07:47:43.007Z,101995.78
2023-01-25T07:48:24.943Z,101994.91
2023-01-25T07:49:05.116Z,101999.28
2023-01-25T07:49:45.980Z,101996.41
2023-01-25T07:50:26.102Z,101996.31
2023-01-25T07:51:43.933Z,101991.69
2023-01-25T07:52:24.318Z,101988.34
2023-01-25T07:53:04.918Z,101991.69
2023-01-25T07:53:49.927Z,101990.72
2023-01-25T07:54:24.022Z,101979.28
2023-01-25T07:55:12.187Z,101993.97
2023-01-25T07:55:45.990Z,101993.25
2023-01-25T07:56:42.915Z,101979.41
2023-01-25T07:57:17.013Z,101976.84
2023-01-25T07:58:03.944Z,101984.78
2023-01-25T07:58:37.956Z,101968.91
2023-01-25T07:59:18.966Z,101977.59
2023-01-25T07:59:58.950Z,101975.66
2023-01-25T08:00:39.920Z,101973.16
2023-01-25T08:01:23.969Z,101970.47
2023-01-25T08:02:03.920Z,101978.34
2023-01-25T08:02:44.046Z,101965.94
2023-01-25T08:03:24.106Z,101967.22
2023-01-25T08:04:06.053Z,101965.72
2023-01-25T08:04:48.925Z,101977.84
2023-01-25T08:05:28.991Z,101959.09
2023-01-25T08:06:11.892Z,101968.22
2023-01-25T08:06:52.135Z,101955.00
2023-01-25T08:07:31.932Z,101957.59
2023-01-25T08:08:12.015Z,101970.53
2023-01-25T08:08:54.933Z,101966.19
2023-01-25T08:09:35.012Z,101967.91
2023-01-25T08:10:15.927Z,101946.19
2023-01-25T08:10:55.943Z,101937.44
2023-01-25T08:11:37.890Z,101957.50
2023-01-25T08:12:18.496Z,101969.72
2023-01-25T08:12:58.914Z,101968.03
2023-01-25T08:13:39.021Z,101952.25
2023-01-25T08:14:19.912Z,101957.59
2023-01-25T08:15:00.081Z,101965.53
2023-01-25T08:15:39.920Z,101961.47